Time;durP1;ratioP1;P1;durP2;ratioP2;P2;SDS_P1;SDS_P2;PMS_P1;PMS_P2;Temp;Humidity;BMP_temperature;BMP_pressure;BME280_temperature;BME280_humidity;BME280_pressure;Samples;Min_cycle;Max_cycle;Signal;HPM_P1;HPM_P2
2023/10/05 00:01:20;;;;;;;9.88;4.60;;;10.80;99.90;;;;;;5112547;28;20620;-74
2023/10/05 00:03:50;;;;;;;6.80;3.78;;;10.80;99.90;;;;;;5112816;28;20644;-74
2023/10/05 00:06:23;;;;;;;6.35;4.07;;;10.80;99.90;;;;;;5112478;28;20216;-74
2023/10/05 00:08:52;;;;;;;6.82;3.90;;;10.80;99.90;;;;;;5113083;28;20286;-74
2023/10/05 00:11:24;;;;;;;8.70;4.00;;;10.80;99.90;;;;;;5097165;28;20196;-74
2023/10/05 00:13:57;;;;;;;8.85;3.90;;;10.80;99.90;;;;;;5104153;28;20200;-74
2023/10/05 00:16:26;;;;;;;9.02;4.18;;;10.80;99.90;;;;;;5104050;28;20243;-74
2023/10/05 00:18:57;;;;;;;16.80;4.57;;;10.70;99.90;;;;;;5084912;28;20200;-74
2023/10/05 00:21:26;;;;;;;10.70;4.95;;;10.70;99.90;;;;;;5108260;28;20731;-74
2023/10/05 00:23:57;;;;;;;10.88;4.25;;;10.60;99.90;;;;;;5086820;28;20262;-74
2023/10/05 00:26:29;;;;;;;10.10;4.43;;;10.70;99.90;;;;;;5103764;28;20228;-74
2023/10/05 00:29:15;;;;;;;9.52;4.22;;;10.60;99.90;;;;;;5108415;28;20208;-74
2023/10/05 00:31:44;;;;;;;12.82;3.92;;;10.60;99.90;;;;;;5102265;28;20303;-74
2023/10/05 00:34:15;;;;;;;9.02;4.45;;;10.60;99.90;;;;;;5112420;28;20200;-74
2023/10/05 00:36:49;;;;;;;9.13;5.13;;;10.60;99.90;;;;;;5103646;28;20228;-74
2023/10/05 00:39:19;;;;;;;9.05;3.95;;;10.60;99.90;;;;;;5112421;28;20301;-74
2023/10/05 00:41:49;;;;;;;9.15;4.40;;;10.60;99.90;;;;;;5103761;28;20243;-74
2023/10/05 00:44:19;;;;;;;8.10;3.97;;;10.60;99.90;;;;;;5102958;28;20640;-74
2023/10/05 00:46:49;;;;;;;10.77;4.10;;;10.60;99.90;;;;;;5103739;28;20231;-74
2023/10/05 00:49:21;;;;;;;12.65;4.75;;;10.60;99.90;;;;;;5103696;28;20593;-74
2023/10/05 00:52:04;;;;;;;10.88;4.22;;;10.60;99.90;;;;;;5108967;28;20245;-74
2023/10/05 00:54:34;;;;;;;12.23;4.25;;;10.60;99.90;;;;;;5109156;28;20207;-74
2023/10/05 00:57:05;;;;;;;11.88;4.28;;;10.60;99.90;;;;;;5112009;28;20313;-74
2023/10/05 00:59:34;;;;;;;13.27;4.20;;;10.60;99.90;;;;;;5111770;28;20287;-74
2023/10/05 01:02:05;;;;;;;6.70;4.07;;;10.60;99.90;;;;;;5087934;28;20260;-74
2023/10/05 01:04:52;;;;;;;11.60;4.70;;;10.60;99.90;;;;;;5111746;28;20243;-74
2023/10/05 01:07:29;;;;;;;8.18;3.97;;;10.60;99.90;;;;;;5104629;28;20216;-74
2023/10/05 01:12:45;;;;;;;10.98;4.10;;;10.60;99.90;;;;;;5097931;28;20208;-74
2023/10/05 01:15:19;;;;;;;13.43;4.38;;;10.60;99.90;;;;;;5103201;28;20199;-74
2023/10/05 01:17:50;;;;;;;9.63;4.55;;;10.60;99.90;;;;;;5111482;28;20230;-74
2023/10/05 01:20:23;;;;;;;7.78;4.28;;;10.60;99.90;;;;;;5111411;28;20227;-74
2023/10/05 01:22:54;;;;;;;12.85;4.55;;;10.60;99.90;;;;;;5111505;28;20273;-74
2023/10/05 01:25:25;;;;;;;13.63;4.30;;;10.60;99.90;;;;;;5097231;28;20284;-74
2023/10/05 01:27:54;;;;;;;16.83;5.40;;;10.60;99.90;;;;;;5101853;28;20220;-74
2023/10/05 01:30:22;;;;;;;15.07;4.95;;;10.70;99.90;;;;;;5104471;28;20201;-74
2023/10/05 01:32:50;;;;;;;12.65;4.47;;;10.70;99.90;;;;;;5107722;28;20256;-74
2023/10/05 01:35:18;;;;;;;14.68;5.22;;;10.70;99.90;;;;;;5105756;28;20195;-74
2023/10/05 01:37:50;;;;;;;10.65;4.78;;;10.70;99.90;;;;;;5102904;28;20224;-74
2023/10/05 01:40:24;;;;;;;14.40;5.15;;;10.70;99.90;;;;;;5110921;28;20219;-74
2023/10/05 01:42:54;;;;;;;11.40;4.80;;;10.70;99.90;;;;;;5111261;28;20252;-74
2023/10/05 01:45:24;;;;;;;14.00;5.78;;;10.70;99.90;;;;;;5111518;28;20208;-74
2023/10/05 01:47:52;;;;;;;12.02;4.97;;;10.70;99.90;;;;;;5102885;28;20668;-74
2023/10/05 01:50:22;;;;;;;10.63;5.20;;;10.70;99.90;;;;;;5111423;28;20192;-74
2023/10/05 01:53:06;;;;;;;16.13;5.53;;;10.80;99.90;;;;;;5111608;28;20324;-74
2023/10/05 01:55:35;;;;;;;9.70;5.30;;;10.80;99.90;;;;;;5103687;28;20280;-74
2023/10/05 01:58:05;;;;;;;18.00;6.65;;;10.80;99.90;;;;;;5118037;22;20276;-58
2023/10/05 02:00:37;;;;;;;16.30;6.00;;;10.80;99.90;;;;;;5114909;28;20280;-59
2023/10/05 02:03:07;;;;;;;15.73;6.70;;;10.80;99.90;;;;;;5115242;28;20220;-58
2023/10/05 02:05:36;;;;;;;12.95;6.47;;;10.80;99.90;;;;;;5115541;27;20208;-60
2023/10/05 02:08:04;;;;;;;15.52;7.25;;;10.80;99.90;;;;;;5114974;28;20288;-59
2023/10/05 02:10:34;;;;;;;14.35;6.57;;;10.80;99.90;;;;;;5114791;28;20200;-59
2023/10/05 02:13:04;;;;;;;17.85;6.95;;;10.80;99.90;;;;;;5115052;28;20227;-58
2023/10/05 02:15:32;;;;;;;18.77;6.90;;;10.80;99.90;;;;;;5115063;28;20695;-59
2023/10/05 02:18:13;;;;;;;11.88;6.63;;;10.80;99.90;;;;;;5114759;28;20257;-58
2023/10/05 02:20:44;;;;;;;18.20;7.75;;;10.80;99.90;;;;;;5114598;28;20277;-59
2023/10/05 02:23:25;;;;;;;13.45;6.90;;;10.80;99.90;;;;;;5114501;28;20289;-59
2023/10/05 02:25:57;;;;;;;17.67;6.97;;;10.80;99.90;;;;;;5114851;28;20291;-59
2023/10/05 02:28:26;;;;;;;15.88;7.30;;;10.80;99.90;;;;;;5114684;28;20211;-58
2023/10/05 02:30:57;;;;;;;13.45;7.03;;;10.80;99.90;;;;;;5113692;28;20200;-60
2023/10/05 02:33:27;;;;;;;14.95;6.90;;;10.80;99.90;;;;;;5113725;28;20314;-59
2023/10/05 02:36:00;;;;;;;14.75;6.80;;;10.80;99.90;;;;;;5114355;28;20299;-58
2023/10/05 02:38:32;;;;;;;15.15;6.85;;;10.80;99.90;;;;;;5114516;28;20208;-59
2023/10/05 02:41:04;;;;;;;17.30;6.50;;;10.80;99.90;;;;;;5114412;28;20306;-59
2023/10/05 02:43:39;;;;;;;16.00;6.75;;;10.80;99.90;;;;;;5114355;28;20331;-59
2023/10/05 02:46:11;;;;;;;15.40;7.88;;;10.80;99.90;;;;;;5114383;28;20203;-58
2023/10/05 02:48:41;;;;;;;15.70;7.53;;;10.80;99.90;;;;;;5114341;28;20211;-59
2023/10/05 02:51:13;;;;;;;17.60;7.30;;;10.80;99.90;;;;;;5114326;28;20203;-58
2023/10/05 02:53:42;;;;;;;18.10;7.65;;;10.80;99.90;;;;;;5113449;28;20255;-59
2023/10/05 02:56:20;;;;;;;16.05;7.53;;;10.80;99.90;;;;;;5114269;28;20310;-57
2023/10/05 02:58:52;;;;;;;17.00;7.38;;;10.80;99.90;;;;;;5113785;28;20892;-57
2023/10/05 03:01:21;;;;;;;15.07;7.88;;;10.80;99.90;;;;;;5113997;28;20220;-59
2023/10/05 03:03:51;;;;;;;16.75;6.90;;;10.80;99.90;;;;;;5113888;28;20219;-59
2023/10/05 03:06:22;;;;;;;16.42;6.78;;;10.80;99.90;;;;;;5113986;28;20245;-59
2023/10/05 03:08:54;;;;;;;13.95;6.93;;;10.80;99.90;;;;;;5112690;28;20207;-59
2023/10/05 03:11:22;;;;;;;15.30;7.05;;;10.70;99.90;;;;;;5114024;28;20196;-59
2023/10/05 03:13:51;;;;;;;16.23;7.28;;;10.80;99.90;;;;;;5113735;28;20651;-59
2023/10/05 03:16:21;;;;;;;17.55;7.65;;;10.80;99.90;;;;;;5114192;28;20203;-59
2023/10/05 03:18:49;;;;;;;14.50;7.60;;;10.80;99.90;;;;;;5113505;28;20207;-59
2023/10/05 03:21:18;;;;;;;18.00;7.65;;;10.80;99.90;;;;;;5113509;28;20313;-58
2023/10/05 03:23:46;;;;;;;11.75;7.32;;;10.80;99.90;;;;;;5113595;28;20231;-59
2023/10/05 03:26:17;;;;;;;13.63;7.38;;;10.80;99.90;;;;;;5100229;28;20212;-59
2023/10/05 03:28:45;;;;;;;14.88;7.88;;;10.80;99.90;;;;;;5092908;28;20727;-59
2023/10/05 03:31:19;;;;;;;14.93;7.28;;;10.80;99.90;;;;;;5092900;28;20592;-58
2023/10/05 03:33:51;;;;;;;14.95;7.30;;;10.80;99.90;;;;;;5092793;28;20636;-58
2023/10/05 03:36:20;;;;;;;16.33;7.03;;;10.80;99.90;;;;;;5093193;28;20524;-58
2023/10/05 03:38:56;;;;;;;13.10;7.35;;;10.80;99.90;;;;;;5092836;28;20200;-59
2023/10/05 03:41:26;;;;;;;13.63;7.75;;;10.90;99.90;;;;;;5093023;28;20601;-59
2023/10/05 03:43:55;;;;;;;13.90;6.82;;;10.80;99.90;;;;;;5092864;28;20228;-59
2023/10/05 03:46:25;;;;;;;13.48;6.93;;;10.80;99.90;;;;;;5092732;28;20239;-59
2023/10/05 03:48:59;;;;;;;12.98;7.57;;;10.80;99.90;;;;;;5092676;28;20258;-59
2023/10/05 03:51:28;;;;;;;16.08;6.70;;;10.80;99.90;;;;;;5092809;28;20240;-59
2023/10/05 03:53:56;;;;;;;18.70;7.50;;;10.80;99.90;;;;;;5092547;28;20277;-59
2023/10/05 03:56:27;;;;;;;15.45;7.40;;;10.80;99.90;;;;;;5093760;28;20291;-58
2023/10/05 03:58:55;;;;;;;16.85;7.70;;;10.80;99.90;;;;;;5093836;28;20668;-58
2023/10/05 04:01:24;;;;;;;17.23;7.60;;;10.80;99.90;;;;;;5094213;28;20236;-57
2023/10/05 04:03:52;;;;;;;17.23;7.25;;;10.70;99.90;;;;;;5093914;28;20262;-59
2023/10/05 04:06:28;;;;;;;13.50;7.78;;;10.70;99.90;;;;;;5094225;28;20208;-58
2023/10/05 04:08:57;;;;;;;15.10;7.32;;;10.80;99.90;;;;;;5094412;28;20661;-59
2023/10/05 04:11:26;;;;;;;16.92;7.50;;;10.70;99.90;;;;;;5094541;28;20442;-57
2023/10/05 04:13:54;;;;;;;14.52;7.22;;;10.70;99.90;;;;;;5094391;28;20224;-58
2023/10/05 04:16:26;;;;;;;14.98;8.63;;;10.70;99.90;;;;;;5094080;28;20295;-58
2023/10/05 04:18:54;;;;;;;15.57;8.13;;;10.80;99.90;;;;;;5094298;28;20780;-59
2023/10/05 04:21:23;;;;;;;13.68;7.15;;;10.70;99.90;;;;;;5093929;28;20651;-59
2023/10/05 04:23:52;;;;;;;18.80;6.75;;;10.70;99.90;;;;;;5093549;28;20264;-59
2023/10/05 04:26:21;;;;;;;14.05;8.40;;;10.70;99.90;;;;;;5092501;28;20283;-58
2023/10/05 04:28:57;;;;;;;14.23;6.82;;;10.80;99.90;;;;;;5092056;28;20246;-57
2023/10/05 04:31:26;;;;;;;14.80;7.50;;;10.80;99.90;;;;;;5092178;28;20215;-58
2023/10/05 04:33:56;;;;;;;15.25;8.02;;;10.70;99.90;;;;;;5091734;28;20311;-58
2023/10/05 04:36:24;;;;;;;13.60;7.72;;;10.80;99.90;;;;;;5091846;28;20204;-58
2023/10/05 04:38:54;;;;;;;22.35;8.30;;;10.80;99.90;;;;;;5091628;28;20657;-58
2023/10/05 04:41:28;;;;;;;12.90;7.20;;;10.80;99.90;;;;;;5091873;28;20613;-59
2023/10/05 04:43:57;;;;;;;19.38;7.47;;;10.70;99.90;;;;;;5091629;28;20225;-58
2023/10/05 04:46:28;;;;;;;17.60;8.38;;;10.70;99.90;;;;;;5091875;28;20295;-58
2023/10/05 04:49:07;;;;;;;17.50;7.70;;;10.80;99.90;;;;;;5091299;28;20209;-58
2023/10/05 04:51:38;;;;;;;13.10;7.25;;;10.70;99.90;;;;;;5091696;28;20207;-59
2023/10/05 04:54:07;;;;;;;17.75;7.70;;;10.70;99.90;;;;;;5091685;28;20204;-59
2023/10/05 04:56:43;;;;;;;17.90;7.90;;;10.70;99.90;;;;;;5091617;28;20296;-59
2023/10/05 04:59:24;;;;;;;10.90;7.55;;;10.70;99.90;;;;;;5091437;28;20281;-60
2023/10/05 05:02:12;;;;;;;15.85;7.72;;;10.80;99.90;;;;;;5091276;28;20567;-58
2023/10/05 05:04:52;;;;;;;15.10;7.15;;;10.80;99.90;;;;;;5112414;22;20255;-60
2023/10/05 05:07:21;;;;;;;18.63;8.13;;;10.80;99.90;;;;;;5091552;28;20258;-61
2023/10/05 05:09:50;;;;;;;14.50;6.78;;;10.80;99.90;;;;;;5091519;28;20232;-61
2023/10/05 05:12:20;;;;;;;14.43;6.55;;;10.80;99.90;;;;;;5091630;28;20242;-60
2023/10/05 05:14:49;;;;;;;18.60;7.10;;;10.80;99.90;;;;;;5075616;28;20229;-61
2023/10/05 05:17:22;;;;;;;18.77;7.07;;;10.80;99.90;;;;;;5077180;28;20211;-60
2023/10/05 05:19:52;;;;;;;13.02;6.22;;;10.90;99.90;;;;;;5091470;28;20231;-61
2023/10/05 05:22:20;;;;;;;14.95;6.45;;;10.80;99.90;;;;;;5077796;28;20221;-61
2023/10/05 05:24:50;;;;;;;15.23;7.18;;;10.80;99.90;;;;;;5071451;28;20411;-61
2023/10/05 05:27:22;;;;;;;14.50;7.20;;;10.90;99.90;;;;;;5071310;28;20205;-60
2023/10/05 05:29:51;;;;;;;16.15;6.78;;;10.90;99.90;;;;;;5071326;28;20213;-61
2023/10/05 05:32:22;;;;;;;15.52;6.72;;;10.90;99.90;;;;;;5092888;28;20246;-61
2023/10/05 05:34:50;;;;;;;13.98;6.55;;;10.90;99.90;;;;;;5093361;28;20246;-61
2023/10/05 05:37:25;;;;;;;21.48;7.55;;;10.90;99.90;;;;;;5095214;28;20230;-61
2023/10/05 05:39:53;;;;;;;15.15;6.95;;;10.90;99.90;;;;;;5082721;28;20249;-61
2023/10/05 05:42:22;;;;;;;16.10;7.25;;;10.80;99.90;;;;;;5084785;28;20244;-61
2023/10/05 05:44:53;;;;;;;17.98;7.13;;;10.80;99.90;;;;;;5093737;28;20224;-61
2023/10/05 05:47:22;;;;;;;15.95;7.35;;;10.80;99.90;;;;;;5091909;28;20265;-60
2023/10/05 05:49:50;;;;;;;14.68;6.80;;;10.80;99.90;;;;;;5093779;28;20292;-60
2023/10/05 05:52:19;;;;;;;14.25;6.80;;;10.90;99.90;;;;;;5094678;28;20274;-60
2023/10/05 05:54:47;;;;;;;12.27;6.70;;;10.90;99.90;;;;;;5093771;28;20301;-60
2023/10/05 05:57:20;;;;;;;15.80;6.88;;;10.90;99.90;;;;;;5095084;28;20667;-61
2023/10/05 05:59:49;;;;;;;17.27;7.25;;;10.90;99.90;;;;;;5091704;28;20205;-60
2023/10/05 06:02:17;;;;;;;11.60;6.03;;;11.00;99.90;;;;;;5095130;28;20219;-60
2023/10/05 06:04:49;;;;;;;20.20;6.80;;;11.00;99.90;;;;;;5094677;28;20717;-60
2023/10/05 06:07:17;;;;;;;13.82;6.35;;;11.00;99.90;;;;;;5083322;28;20296;-60
2023/10/05 06:09:45;;;;;;;14.57;6.75;;;11.00;99.90;;;;;;5077729;28;20205;-60
2023/10/05 06:12:15;;;;;;;14.68;6.82;;;11.10;99.90;;;;;;5089459;28;20197;-60
2023/10/05 06:14:43;;;;;;;14.07;6.50;;;11.10;99.90;;;;;;5088823;28;20274;-60
2023/10/05 06:17:11;;;;;;;12.52;6.72;;;11.10;99.90;;;;;;5091865;28;20597;-61
2023/10/05 06:19:39;;;;;;;11.48;6.10;;;11.10;99.90;;;;;;5082851;28;20213;-60
2023/10/05 06:22:08;;;;;;;9.82;6.65;;;11.10;99.90;;;;;;5082542;28;20696;-60
2023/10/05 06:24:42;;;;;;;14.73;6.50;;;11.10;99.90;;;;;;5074060;28;20236;-60
2023/10/05 06:27:10;;;;;;;14.93;5.97;;;11.10;99.90;;;;;;5074581;28;20205;-60
2023/10/05 06:29:37;;;;;;;12.50;6.00;;;11.20;99.90;;;;;;5081065;28;20235;-61
2023/10/05 06:32:08;;;;;;;11.98;6.75;;;11.20;99.90;;;;;;5075191;28;20296;-60
2023/10/05 06:34:37;;;;;;;13.73;6.63;;;11.30;99.90;;;;;;5073996;28;20229;-60
2023/10/05 06:37:05;;;;;;;15.02;6.72;;;11.30;99.90;;;;;;5074207;28;20215;-61
2023/10/05 06:39:34;;;;;;;18.27;7.10;;;11.40;99.90;;;;;;5078915;28;20209;-62
2023/10/05 06:42:03;;;;;;;15.95;6.93;;;11.40;99.90;;;;;;5072671;28;20237;-61
2023/10/05 06:44:33;;;;;;;12.68;7.07;;;11.40;99.90;;;;;;5073761;28;20423;-60
2023/10/05 06:47:04;;;;;;;17.55;7.13;;;11.40;99.90;;;;;;5082347;28;20291;-61
2023/10/05 06:49:33;;;;;;;10.70;6.70;;;11.50;99.90;;;;;;5073665;28;20206;-61
2023/10/05 06:52:04;;;;;;;15.25;6.80;;;11.60;99.90;;;;;;5073824;28;20201;-60
2023/10/05 06:54:34;;;;;;;13.90;6.22;;;11.50;99.90;;;;;;5073739;28;20225;-61
2023/10/05 06:57:02;;;;;;;16.25;6.70;;;11.60;99.90;;;;;;5073860;28;20241;-61
2023/10/05 06:59:31;;;;;;;14.80;6.45;;;11.60;99.90;;;;;;5073616;28;20216;-61
2023/10/05 07:01:59;;;;;;;13.25;6.70;;;11.70;99.90;;;;;;5073685;28;20229;-60
2023/10/05 07:04:27;;;;;;;11.40;6.53;;;11.70;99.90;;;;;;5073088;28;20233;-60
2023/10/05 07:06:55;;;;;;;15.90;7.47;;;11.70;99.90;;;;;;5073923;28;20209;-60
2023/10/05 07:09:26;;;;;;;15.75;6.70;;;11.80;99.90;;;;;;5073312;28;20245;-60
2023/10/05 07:11:55;;;;;;;13.48;6.25;;;11.80;99.90;;;;;;5082369;28;20204;-60
2023/10/05 07:14:24;;;;;;;13.85;6.53;;;11.90;99.90;;;;;;5093413;28;20225;-61
2023/10/05 07:16:55;;;;;;;12.63;6.18;;;11.90;99.90;;;;;;5093222;28;20240;-60
2023/10/05 07:19:23;;;;;;;12.02;6.50;;;11.90;99.90;;;;;;5092781;28;20203;-61
2023/10/05 07:21:51;;;;;;;13.27;6.95;;;11.90;99.90;;;;;;5076509;28;20654;-61
2023/10/05 07:24:19;;;;;;;14.55;7.07;;;11.90;99.90;;;;;;5072809;28;20271;-61
2023/10/05 07:26:47;;;;;;;14.35;6.90;;;12.00;99.90;;;;;;5072576;28;20282;-61
2023/10/05 07:29:17;;;;;;;13.88;6.75;;;12.00;99.90;;;;;;5072705;28;20552;-60
2023/10/05 07:31:58;;;;;;;17.10;7.05;;;12.00;99.90;;;;;;5073168;28;20291;-61
2023/10/05 07:34:26;;;;;;;10.35;5.80;;;12.10;99.90;;;;;;5072716;28;20702;-61
2023/10/05 07:36:54;;;;;;;12.25;6.13;;;12.20;99.90;;;;;;5073028;28;20228;-60
2023/10/05 07:39:23;;;;;;;14.10;6.10;;;12.20;99.90;;;;;;5072667;28;20643;-60
2023/10/05 07:41:51;;;;;;;15.07;6.28;;;12.30;99.90;;;;;;5072412;28;20201;-61
2023/10/05 07:44:20;;;;;;;13.00;6.45;;;12.30;99.90;;;;;;5072760;28;20229;-60
2023/10/05 07:46:49;;;;;;;13.45;6.25;;;12.40;99.90;;;;;;5072677;28;20670;-61
2023/10/05 07:49:17;;;;;;;10.93;5.97;;;12.50;99.90;;;;;;5072307;28;20552;-61
2023/10/05 07:51:46;;;;;;;11.40;5.95;;;12.50;99.90;;;;;;5072383;28;20205;-60
2023/10/05 07:54:13;;;;;;;12.55;6.50;;;12.60;99.90;;;;;;5072024;28;20710;-60
2023/10/05 07:56:42;;;;;;;13.52;6.63;;;12.60;99.90;;;;;;5072474;28;20290;-60
2023/10/05 07:59:10;;;;;;;13.02;6.00;;;12.60;99.90;;;;;;5072386;28;20236;-61
2023/10/05 08:01:39;;;;;;;11.25;6.00;;;12.60;99.90;;;;;;5072421;28;20237;-61
2023/10/05 08:04:11;;;;;;;13.95;6.43;;;12.60;99.90;;;;;;5072171;28;20290;-60
2023/10/05 08:06:42;;;;;;;18.65;6.50;;;12.60;99.90;;;;;;5072431;28;20737;-60
2023/10/05 08:09:15;;;;;;;14.27;6.25;;;12.70;99.90;;;;;;5071787;28;20236;-60
2023/10/05 08:11:43;;;;;;;10.52;5.43;;;12.80;99.90;;;;;;5072307;28;20233;-60
2023/10/05 08:14:11;;;;;;;19.40;6.47;;;12.90;99.90;;;;;;5071973;28;20282;-60
2023/10/05 08:16:41;;;;;;;13.35;6.25;;;13.10;99.90;;;;;;5072115;28;20217;-61
2023/10/05 08:19:09;;;;;;;16.20;5.85;;;13.20;99.90;;;;;;5071721;28;20209;-61
2023/10/05 08:21:38;;;;;;;12.68;5.95;;;13.20;99.90;;;;;;5072077;28;20244;-61
2023/10/05 08:24:06;;;;;;;10.80;6.43;;;13.30;99.90;;;;;;5070794;28;20269;-61
2023/10/05 08:26:39;;;;;;;14.85;6.63;;;13.40;99.90;;;;;;5072061;28;20217;-60
2023/10/05 08:29:09;;;;;;;15.88;6.22;;;13.50;99.90;;;;;;5071114;28;20202;-61
2023/10/05 08:31:37;;;;;;;13.13;6.35;;;13.50;99.90;;;;;;5071794;28;20206;-61
2023/10/05 08:34:08;;;;;;;13.80;6.65;;;13.60;99.90;;;;;;5071591;28;20221;-61
2023/10/05 08:36:37;;;;;;;16.45;6.57;;;13.70;99.90;;;;;;5071885;28;20675;-60
2023/10/05 08:39:08;;;;;;;11.65;5.85;;;13.80;99.90;;;;;;5071655;28;20301;-61
2023/10/05 08:41:36;;;;;;;19.83;6.63;;;13.80;99.90;;;;;;5071728;28;20259;-61
2023/10/05 08:44:09;;;;;;;17.55;7.13;;;13.90;99.90;;;;;;5071408;28;20317;-61
2023/10/05 08:46:42;;;;;;;16.38;5.50;;;14.00;99.90;;;;;;5071761;28;20241;-61
2023/10/05 08:49:12;;;;;;;16.05;6.70;;;14.10;99.90;;;;;;5071722;28;20227;-60
2023/10/05 08:51:40;;;;;;;16.88;5.95;;;14.20;99.90;;;;;;5071736;28;20212;-61
2023/10/05 08:54:27;;;;;;;17.45;7.22;;;14.30;99.90;;;;;;5071063;28;20245;-61
2023/10/05 08:56:57;;;;;;;13.02;6.30;;;14.40;99.90;;;;;;5071573;28;20604;-61
2023/10/05 08:59:27;;;;;;;16.00;6.70;;;14.60;99.90;;;;;;5071712;28;20201;-61
2023/10/05 09:01:55;;;;;;;17.35;6.25;;;14.70;99.90;;;;;;5071538;28;20201;-61
2023/10/05 09:04:29;;;;;;;18.50;6.75;;;14.90;99.90;;;;;;5070610;28;20255;-61
2023/10/05 09:06:59;;;;;;;14.50;6.00;;;15.10;99.90;;;;;;5071069;28;20212;-61
2023/10/05 09:09:37;;;;;;;14.93;6.03;;;15.20;99.90;;;;;;5071111;28;20213;-61
2023/10/05 09:12:19;;;;;;;13.98;5.65;;;15.40;99.90;;;;;;5071505;28;20563;-61
2023/10/05 09:14:52;;;;;;;17.88;5.78;;;15.50;99.90;;;;;;5072573;28;20260;-61
2023/10/05 09:17:22;;;;;;;18.38;6.18;;;15.60;99.90;;;;;;5088589;28;20201;-61
2023/10/05 09:19:51;;;;;;;14.43;6.03;;;15.80;99.90;;;;;;5091113;28;20208;-61
2023/10/05 09:22:23;;;;;;;14.82;5.80;;;15.90;99.90;;;;;;5071892;28;20205;-61
2023/10/05 09:24:53;;;;;;;14.57;5.75;;;16.10;99.90;;;;;;5071017;28;20568;-61
2023/10/05 09:27:26;;;;;;;17.73;6.32;;;16.30;99.90;;;;;;5071475;28;20212;-61
2023/10/05 09:30:09;;;;;;;9.02;5.05;;;16.40;99.90;;;;;;5070965;28;20599;-61
2023/10/05 09:32:37;;;;;;;17.02;5.18;;;16.50;99.90;;;;;;5071562;28;20266;-61
2023/10/05 09:35:10;;;;;;;15.48;5.45;;;16.60;99.90;;;;;;5071097;28;20221;-61
2023/10/05 09:37:39;;;;;;;12.38;5.03;;;16.60;99.90;;;;;;5071124;28;20678;-61
2023/10/05 09:40:15;;;;;;;17.13;5.75;;;16.70;99.90;;;;;;5071106;28;20209;-61
2023/10/05 09:42:44;;;;;;;14.90;4.72;;;16.60;99.90;;;;;;5085939;28;20240;-61
2023/10/05 09:45:12;;;;;;;17.83;5.35;;;16.70;99.90;;;;;;5091540;28;20231;-61
2023/10/05 09:47:41;;;;;;;15.20;4.60;;;16.70;99.90;;;;;;5091451;28;20573;-61
2023/10/05 09:50:15;;;;;;;12.23;4.72;;;16.70;99.90;;;;;;5091147;28;20205;-61
2023/10/05 09:52:45;;;;;;;16.48;4.70;;;16.70;99.90;;;;;;5091069;28;20204;-61
2023/10/05 09:55:17;;;;;;;12.55;5.55;;;16.70;99.90;;;;;;5090415;28;20221;-61
2023/10/05 09:57:51;;;;;;;11.30;4.03;;;16.70;99.90;;;;;;5090448;28;20212;-61
2023/10/05 10:00:30;;;;;;;17.88;4.53;;;16.70;99.90;;;;;;5091001;28;20204;-61
2023/10/05 10:02:59;;;;;;;9.75;4.18;;;16.70;99.90;;;;;;5091027;28;20207;-61
2023/10/05 10:05:35;;;;;;;11.85;4.40;;;16.60;99.90;;;;;;5090861;28;20229;-61
2023/10/05 10:08:09;;;;;;;14.13;4.45;;;16.70;99.90;;;;;;5091041;28;20205;-61
2023/10/05 10:10:48;;;;;;;15.82;4.35;;;16.70;99.90;;;;;;5090765;28;20208;-61
2023/10/05 10:13:16;;;;;;;11.43;4.38;;;16.70;99.90;;;;;;5090874;28;20391;-61
2023/10/05 10:15:46;;;;;;;17.63;4.75;;;16.80;99.90;;;;;;5090803;28;20258;-61
2023/10/05 10:18:15;;;;;;;12.43;4.22;;;16.70;99.90;;;;;;5093044;28;20231;-61
2023/10/05 10:20:48;;;;;;;9.55;3.03;;;16.80;99.90;;;;;;5094497;28;20262;-61
2023/10/05 10:23:22;;;;;;;8.07;2.95;;;16.90;99.90;;;;;;5094402;28;20783;-61
2023/10/05 10:25:51;;;;;;;9.32;3.17;;;16.90;99.90;;;;;;5094615;28;20224;-61
2023/10/05 10:28:24;;;;;;;8.23;2.85;;;16.90;99.90;;;;;;5094306;28;20258;-61
2023/10/05 10:31:16;;;;;;;6.80;2.78;;;16.90;99.90;;;;;;5083170;28;20205;-61
2023/10/05 10:33:49;;;;;;;8.77;2.65;;;16.80;99.90;;;;;;5079927;28;20224;-61
2023/10/05 10:36:23;;;;;;;8.65;2.53;;;16.80;99.90;;;;;;5094463;28;20228;-61
2023/10/05 10:38:51;;;;;;;14.15;3.22;;;16.80;99.90;;;;;;5094080;28;20266;-61
2023/10/05 10:41:21;;;;;;;8.27;3.03;;;16.80;99.90;;;;;;5094543;28;20651;-61
2023/10/05 10:43:53;;;;;;;8.75;2.65;;;16.70;99.90;;;;;;5094291;28;20220;-61
2023/10/05 10:46:32;;;;;;;10.32;3.53;;;16.70;99.90;;;;;;5094608;28;20307;-61
2023/10/05 10:49:00;;;;;;;16.08;3.10;;;16.70;99.90;;;;;;5094039;28;20665;-61
2023/10/05 10:51:32;;;;;;;11.13;2.80;;;16.70;99.90;;;;;;5094055;28;20255;-61
2023/10/05 10:54:08;;;;;;;6.30;2.42;;;16.70;99.90;;;;;;5093994;28;20731;-61
2023/10/05 10:56:41;;;;;;;7.18;2.78;;;16.70;99.90;;;;;;5094176;28;20273;-61
2023/10/05 10:59:11;;;;;;;9.57;2.63;;;16.70;99.90;;;;;;5093817;28;20205;-61
2023/10/05 11:01:52;;;;;;;10.45;2.75;;;16.70;99.90;;;;;;5093818;28;20257;-61
2023/10/05 11:04:26;;;;;;;6.00;2.58;;;16.80;99.90;;;;;;5074828;28;20232;-61
2023/10/05 11:06:59;;;;;;;8.88;2.97;;;16.80;99.90;;;;;;5082915;28;20228;-61
2023/10/05 11:09:30;;;;;;;10.75;2.67;;;16.70;99.90;;;;;;5089258;28;20208;-61
2023/10/05 11:12:08;;;;;;;10.50;2.92;;;16.70;99.90;;;;;;5086202;28;20204;-61
2023/10/05 11:14:42;;;;;;;6.43;2.80;;;16.70;99.90;;;;;;5086677;28;20234;-61
2023/10/05 11:17:28;;;;;;;8.63;2.80;;;16.70;99.90;;;;;;5091201;28;20211;-61
2023/10/05 11:19:58;;;;;;;8.05;3.28;;;16.60;99.90;;;;;;5088745;28;20200;-61
2023/10/05 11:22:30;;;;;;;8.88;2.80;;;16.70;99.90;;;;;;5090379;28;20283;-61
2023/10/05 11:25:14;;;;;;;8.13;2.65;;;16.60;99.90;;;;;;5073019;28;20225;-61
2023/10/05 11:27:44;;;;;;;10.82;2.97;;;16.60;99.90;;;;;;5073126;28;20609;-61
2023/10/05 11:30:18;;;;;;;11.30;2.63;;;16.60;99.90;;;;;;5072561;28;20209;-61
2023/10/05 11:33:06;;;;;;;8.93;2.88;;;16.60;99.90;;;;;;5072917;28;20211;-61
2023/10/05 11:35:53;;;;;;;13.40;3.03;;;16.70;99.90;;;;;;5078350;28;20208;-61
2023/10/05 11:38:26;;;;;;;4.90;2.30;;;16.60;99.90;;;;;;5072880;28;20222;-61
2023/10/05 11:40:56;;;;;;;5.93;2.50;;;16.60;99.90;;;;;;5074070;28;20237;-61
2023/10/05 11:43:24;;;;;;;7.30;3.08;;;16.60;99.90;;;;;;5073491;28;20220;-61
2023/10/05 11:45:56;;;;;;;10.48;2.88;;;16.60;99.90;;;;;;5087271;28;20239;-61
2023/10/05 11:48:32;;;;;;;9.95;2.63;;;16.70;99.90;;;;;;5073475;28;20209;-61
2023/10/05 11:51:01;;;;;;;9.38;3.13;;;16.60;99.90;;;;;;5072795;28;20243;-61
2023/10/05 11:53:30;;;;;;;6.72;2.67;;;16.70;99.90;;;;;;5078091;28;20227;-61
2023/10/05 11:56:00;;;;;;;8.05;2.67;;;16.70;99.90;;;;;;5074281;28;20224;-62
2023/10/05 11:58:28;;;;;;;12.07;3.05;;;16.70;99.90;;;;;;5092094;28;20204;-60
2023/10/05 12:01:03;;;;;;;6.78;2.33;;;16.60;99.90;;;;;;5092702;28;20295;-61
2023/10/05 12:03:30;;;;;;;9.70;2.70;;;16.60;99.90;;;;;;5088123;28;20276;-60
2023/10/05 12:06:00;;;;;;;9.55;2.53;;;16.60;99.90;;;;;;5076902;28;20717;-60
2023/10/05 12:08:30;;;;;;;13.73;2.63;;;16.60;99.90;;;;;;5082305;28;20576;-60
2023/10/05 12:10:59;;;;;;;6.22;2.05;;;16.50;99.90;;;;;;5088157;28;20236;-60
2023/10/05 12:13:27;;;;;;;7.10;2.60;;;16.50;99.90;;;;;;5091996;28;20593;-60
2023/10/05 12:15:55;;;;;;;6.55;2.05;;;16.50;99.90;;;;;;5092620;28;20196;-61
2023/10/05 12:18:23;;;;;;;5.20;2.13;;;16.50;99.90;;;;;;5076672;28;20205;-63
2023/10/05 12:20:51;;;;;;;8.93;2.42;;;16.50;99.90;;;;;;5091770;28;20693;-60
2023/10/05 12:23:19;;;;;;;9.25;2.50;;;16.50;99.90;;;;;;5083452;28;20241;-61
2023/10/05 12:25:50;;;;;;;15.40;2.53;;;16.50;99.90;;;;;;5078471;28;20223;-61
2023/10/05 12:28:23;;;;;;;7.72;2.20;;;16.50;99.90;;;;;;5071759;28;20293;-60
2023/10/05 12:30:52;;;;;;;6.30;2.10;;;16.50;99.90;;;;;;5077818;28;20253;-60
2023/10/05 12:33:20;;;;;;;3.92;2.03;;;16.50;99.90;;;;;;5091821;28;20648;-60
2023/10/05 12:35:52;;;;;;;8.40;2.10;;;16.50;99.90;;;;;;5092001;28;20295;-60
2023/10/05 12:38:21;;;;;;;9.27;2.08;;;16.50;99.90;;;;;;5091915;28;20556;-60
2023/10/05 12:40:51;;;;;;;8.77;2.00;;;16.50;99.90;;;;;;5090714;28;20201;-60
2023/10/05 12:43:21;;;;;;;7.70;1.98;;;16.50;99.90;;;;;;5091737;28;20307;-60
2023/10/05 12:45:50;;;;;;;10.15;2.40;;;16.50;99.90;;;;;;5091940;28;20295;-60
2023/10/05 12:48:18;;;;;;;5.18;2.50;;;16.50;99.90;;;;;;5091679;28;20673;-60
2023/10/05 12:50:46;;;;;;;8.23;1.77;;;16.60;99.90;;;;;;5092037;28;20300;-60
2023/10/05 12:53:14;;;;;;;4.63;1.90;;;16.60;99.90;;;;;;5091822;28;20200;-60
2023/10/05 12:55:42;;;;;;;4.50;1.85;;;16.70;99.90;;;;;;5091779;28;20231;-60
2023/10/05 12:58:11;;;;;;;7.20;1.80;;;16.60;99.90;;;;;;5090863;28;20653;-60
2023/10/05 13:00:42;;;;;;;4.40;2.33;;;16.70;99.90;;;;;;5091479;28;20200;-60